Main page
METAR-TAF:

METAR-TAF

Airports :

Bristol, England

Bristol Airport

latitude: 51-23N, longitude: 002-43W, elevation: 189 m

Current weather observation

The report was made 29 minutes ago, at 06:50 UTC
Wind 12 kt from the East
Temperature 16°C
Humidity 77%
Pressure 1018 hPa
Visibility 10 km or more

METAR: EGGD 260650Z AUTO 09012KT 9999 NCD 16/12 Q1018

Time: 08:19 (07:19 UTC)

Forecast

The report was made 2 hours and 24 minutes ago, at 04:55 UTC
Forecast valid from 26 at 06 UTC to 27 at 06 UTC
Wind 10 kt from the East/Southeast
Visibility 10 km or more
no clouds below 1500 m and no cumulonimbus
Temporary
from 27 at 03 UTC to 27 at 06 UTC
Visibility: 8000 m
rain showers
Probability 30% :
Temporary
from 27 at 03 UTC to 27 at 06 UTC
Visibility: 4000 m
Broken clouds at a height of 4500 ft, Cumulonimbus.
heavy rain showers, thunderstorm, rain

TAF: EGGD 260455Z 2606/2706 11010KT CAVOK TEMPO 2703/2706 8000 SHRA PROB30 TEMPO 2703/2706 4000 +SHRA TSRA BKN045CB

Weather observations and forecasts of more than 4000 airports (METAR and TAF reports).

The available stations are represented by yellow and red dots on the map.

Hover mouse over dot to see the name of the station.

Then click to see weather observations and forecasts.

To change the map : click on the green buttons with a black cross to zoom in, on the green button with a dash to zoom out, or on the green arrows for adjacent maps.


METAR-TAF: